EJU58VL LIMC-LEPA
Flight info
| Callsign | EJU58VL |
|---|---|
| Flight time | N/A |
| Altitude | 35000 |
| Route | LAGEN9X LAGEN DCT ANAKI DCT IXITO DCT PIDAD DCT TALEP DCT BALEN UT250 RIXOT RIXOT1P |
| Aircraft | A20N/M-VGDW/C |
Departure
| Time | N/A |
|---|---|
| Airport | Milan Malpensa International Airport (LIMC) |
Arrival
| Time | 2026-05-04 20:06 |
|---|---|
| Airport | Palma de Mallorca Airport (LEPA) |
| Time | Latitude | Longitude | Altitude | Speed | Heading |
|---|---|---|---|---|---|
| 2026-05-04 19:21 | 42.06569 | 6.55278 | 34961 ft | 377 kts | 214° |
| 2026-05-04 19:22 | 42.02047 | 6.51725 | 34952 ft | 376 kts | 214° |
| 2026-05-04 19:22 | 41.97530 | 6.48180 | 34951 ft | 377 kts | 214° |
| 2026-05-04 19:23 | 41.93007 | 6.44637 | 34951 ft | 377 kts | 214° |
| 2026-05-04 19:23 | 41.88485 | 6.41099 | 34942 ft | 376 kts | 214° |
| 2026-05-04 19:24 | 41.83981 | 6.37585 | 34943 ft | 377 kts | 214° |
| 2026-05-04 19:24 | 41.79454 | 6.34058 | 34943 ft | 377 kts | 214° |
| 2026-05-04 19:25 | 41.74935 | 6.30540 | 34945 ft | 376 kts | 214° |
| 2026-05-04 19:25 | 41.70413 | 6.27027 | 34940 ft | 376 kts | 213° |
| 2026-05-04 19:26 | 41.65878 | 6.23508 | 34942 ft | 376 kts | 213° |
| 2026-05-04 19:26 | 41.61357 | 6.20011 | 34949 ft | 377 kts | 214° |
| 2026-05-04 19:27 | 41.56849 | 6.16524 | 34945 ft | 377 kts | 214° |
| 2026-05-04 19:27 | 41.52327 | 6.13032 | 34948 ft | 377 kts | 214° |
| 2026-05-04 19:28 | 41.47800 | 6.09545 | 34947 ft | 376 kts | 214° |
| 2026-05-04 19:28 | 41.43266 | 6.06056 | 34949 ft | 376 kts | 214° |
| 2026-05-04 19:29 | 41.38764 | 6.02597 | 34952 ft | 376 kts | 214° |
| 2026-05-04 19:29 | 41.34221 | 5.99116 | 34957 ft | 376 kts | 214° |
| 2026-05-04 19:30 | 41.29693 | 5.95647 | 34955 ft | 376 kts | 214° |
| 2026-05-04 19:30 | 41.25156 | 5.92181 | 34956 ft | 376 kts | 214° |
| 2026-05-04 19:31 | 41.20630 | 5.88732 | 34955 ft | 376 kts | 214° |
| 2026-05-04 19:31 | 41.16098 | 5.85278 | 34955 ft | 376 kts | 214° |
| 2026-05-04 19:32 | 41.11565 | 5.81829 | 34954 ft | 376 kts | 214° |
| 2026-05-04 19:32 | 41.07033 | 5.78388 | 34953 ft | 376 kts | 214° |
| 2026-05-04 19:33 | 41.02526 | 5.74970 | 34950 ft | 375 kts | 215° |
| 2026-05-04 19:33 | 40.98196 | 5.71148 | 34948 ft | 374 kts | 221° |
| 2026-05-04 19:34 | 40.94266 | 5.66644 | 34945 ft | 374 kts | 227° |
| 2026-05-04 19:34 | 40.90789 | 5.61539 | 34941 ft | 374 kts | 233° |
| 2026-05-04 19:35 | 40.87737 | 5.56006 | 34942 ft | 375 kts | 236° |
| 2026-05-04 19:35 | 40.84715 | 5.50408 | 34941 ft | 374 kts | 236° |
| 2026-05-04 19:36 | 40.81708 | 5.44827 | 34940 ft | 375 kts | 236° |
| 2026-05-04 19:36 | 40.78704 | 5.39259 | 34939 ft | 375 kts | 236° |
| 2026-05-04 19:37 | 40.75683 | 5.33657 | 34897 ft | 375 kts | 235° |
| 2026-05-04 19:37 | 40.74189 | 5.30892 | 34666 ft | 374 kts | 235° |
| 2026-05-04 19:37 | 40.72681 | 5.28104 | 34435 ft | 372 kts | 235° |
| 2026-05-04 19:37 | 40.71187 | 5.25343 | 34185 ft | 369 kts | 235° |
| 2026-05-04 19:38 | 40.69697 | 5.22595 | 33914 ft | 367 kts | 235° |
| 2026-05-04 19:38 | 40.68231 | 5.19895 | 33589 ft | 367 kts | 235° |
| 2026-05-04 19:38 | 40.66748 | 5.17155 | 33143 ft | 368 kts | 234° |
| 2026-05-04 19:38 | 40.65277 | 5.14447 | 32586 ft | 368 kts | 235° |
| 2026-05-04 19:39 | 40.63788 | 5.11708 | 31945 ft | 369 kts | 234° |
| 2026-05-04 19:39 | 40.62300 | 5.08971 | 31285 ft | 369 kts | 234° |
| 2026-05-04 19:39 | 40.60819 | 5.06251 | 30614 ft | 369 kts | 234° |
| 2026-05-04 19:39 | 40.59318 | 5.03495 | 29920 ft | 371 kts | 234° |
| 2026-05-04 19:40 | 40.57829 | 5.00767 | 29228 ft | 372 kts | 234° |
| 2026-05-04 19:40 | 40.56312 | 4.97991 | 28566 ft | 372 kts | 234° |
| 2026-05-04 19:40 | 40.54813 | 4.95251 | 28100 ft | 368 kts | 234° |
| 2026-05-04 19:40 | 40.53347 | 4.92571 | 27629 ft | 364 kts | 234° |
| 2026-05-04 19:41 | 40.51881 | 4.89896 | 27151 ft | 361 kts | 234° |
| 2026-05-04 19:41 | 40.50412 | 4.87213 | 26667 ft | 358 kts | 234° |
| 2026-05-04 19:41 | 40.48982 | 4.84605 | 26197 ft | 355 kts | 235° |
| 2026-05-04 19:41 | 40.47541 | 4.81980 | 25720 ft | 352 kts | 234° |
| 2026-05-04 19:42 | 40.46115 | 4.79385 | 25242 ft | 350 kts | 235° |
| 2026-05-04 19:42 | 40.44701 | 4.76814 | 24763 ft | 347 kts | 235° |
| 2026-05-04 19:42 | 40.43304 | 4.74275 | 24293 ft | 345 kts | 235° |
| 2026-05-04 19:42 | 40.41909 | 4.71738 | 23818 ft | 343 kts | 235° |
| 2026-05-04 19:43 | 40.40515 | 4.69208 | 23347 ft | 341 kts | 235° |
| 2026-05-04 19:43 | 40.39119 | 4.66669 | 22989 ft | 348 kts | 235° |
| 2026-05-04 19:43 | 40.37710 | 4.64116 | 22934 ft | 353 kts | 235° |
| 2026-05-04 19:43 | 40.36250 | 4.61472 | 22944 ft | 355 kts | 235° |
| 2026-05-04 19:44 | 40.34809 | 4.58864 | 22943 ft | 355 kts | 235° |
| 2026-05-04 19:44 | 40.33369 | 4.56260 | 22947 ft | 355 kts | 235° |
| 2026-05-04 19:44 | 40.31910 | 4.53624 | 22951 ft | 354 kts | 235° |
| 2026-05-04 19:44 | 40.30475 | 4.51035 | 22952 ft | 354 kts | 235° |
| 2026-05-04 19:45 | 40.29028 | 4.48432 | 22952 ft | 355 kts | 235° |
| 2026-05-04 19:45 | 40.27575 | 4.45814 | 22949 ft | 356 kts | 235° |
| 2026-05-04 19:45 | 40.26131 | 4.43212 | 22944 ft | 355 kts | 235° |
| 2026-05-04 19:45 | 40.24669 | 4.40585 | 22944 ft | 355 kts | 235° |
| 2026-05-04 19:46 | 40.23218 | 4.37981 | 22942 ft | 354 kts | 235° |
| 2026-05-04 19:46 | 40.21769 | 4.35377 | 22942 ft | 354 kts | 235° |
| 2026-05-04 19:46 | 40.20334 | 4.32807 | 22939 ft | 352 kts | 234° |
| 2026-05-04 19:46 | 40.18885 | 4.30210 | 22939 ft | 352 kts | 234° |
| 2026-05-04 19:47 | 40.17455 | 4.27649 | 22937 ft | 352 kts | 235° |
| 2026-05-04 19:47 | 40.16005 | 4.25054 | 22936 ft | 351 kts | 235° |
| 2026-05-04 19:47 | 40.14584 | 4.22513 | 22930 ft | 351 kts | 234° |
| 2026-05-04 19:47 | 40.13128 | 4.19913 | 22915 ft | 351 kts | 234° |
| 2026-05-04 19:48 | 40.11699 | 4.17360 | 22572 ft | 353 kts | 234° |
| 2026-05-04 19:48 | 40.10248 | 4.14775 | 21971 ft | 353 kts | 234° |
| 2026-05-04 19:48 | 40.08820 | 4.12228 | 21437 ft | 351 kts | 235° |
| 2026-05-04 19:48 | 40.07372 | 4.09650 | 20920 ft | 348 kts | 235° |
| 2026-05-04 19:49 | 40.05962 | 4.07146 | 20436 ft | 346 kts | 235° |
| 2026-05-04 19:49 | 40.04546 | 4.04627 | 19953 ft | 343 kts | 235° |
| 2026-05-04 19:49 | 40.03139 | 4.02129 | 19476 ft | 341 kts | 235° |
| 2026-05-04 19:49 | 40.01747 | 3.99658 | 18980 ft | 339 kts | 235° |
| 2026-05-04 19:50 | 40.00353 | 3.97185 | 18485 ft | 338 kts | 235° |
| 2026-05-04 19:50 | 39.98970 | 3.94735 | 17990 ft | 336 kts | 235° |
| 2026-05-04 19:50 | 39.97592 | 3.92293 | 17495 ft | 335 kts | 235° |
| 2026-05-04 19:50 | 39.96211 | 3.89848 | 17011 ft | 333 kts | 235° |
| 2026-05-04 19:51 | 39.94858 | 3.87456 | 16589 ft | 329 kts | 235° |
| 2026-05-04 19:51 | 39.93496 | 3.85050 | 16421 ft | 332 kts | 234° |
| 2026-05-04 19:51 | 39.92137 | 3.82653 | 16235 ft | 334 kts | 234° |
| 2026-05-04 19:51 | 39.90754 | 3.80215 | 16056 ft | 333 kts | 234° |
| 2026-05-04 19:52 | 39.89383 | 3.77802 | 15870 ft | 332 kts | 235° |
| 2026-05-04 19:52 | 39.88020 | 3.75400 | 15423 ft | 331 kts | 235° |
| 2026-05-04 19:52 | 39.86662 | 3.73009 | 15007 ft | 327 kts | 234° |
| 2026-05-04 19:52 | 39.85305 | 3.70619 | 14555 ft | 326 kts | 234° |
| 2026-05-04 19:53 | 39.83972 | 3.68276 | 14122 ft | 324 kts | 234° |
| 2026-05-04 19:53 | 39.82638 | 3.65935 | 13697 ft | 322 kts | 234° |
| 2026-05-04 19:53 | 39.81309 | 3.63604 | 13274 ft | 319 kts | 234° |
| 2026-05-04 19:53 | 39.80007 | 3.61321 | 12856 ft | 318 kts | 234° |
| 2026-05-04 19:54 | 39.78688 | 3.59011 | 12428 ft | 316 kts | 234° |
| 2026-05-04 19:54 | 39.77375 | 3.56716 | 12003 ft | 314 kts | 234° |
| 2026-05-04 19:54 | 39.76092 | 3.54469 | 11591 ft | 312 kts | 234° |
| 2026-05-04 19:54 | 39.74797 | 3.52206 | 11170 ft | 311 kts | 234° |
| 2026-05-04 19:55 | 39.73522 | 3.49980 | 10756 ft | 308 kts | 234° |
| 2026-05-04 19:55 | 39.72243 | 3.47748 | 10370 ft | 305 kts | 234° |
| 2026-05-04 19:55 | 39.70998 | 3.45572 | 10066 ft | 297 kts | 235° |
| 2026-05-04 19:55 | 39.70070 | 3.43245 | 9949 ft | 283 kts | 253° |
| 2026-05-04 19:56 | 39.69859 | 3.40808 | 9933 ft | 269 kts | 269° |
| 2026-05-04 19:56 | 39.69931 | 3.38393 | 9672 ft | 264 kts | 270° |
| 2026-05-04 19:56 | 39.70015 | 3.36046 | 9315 ft | 262 kts | 270° |
| 2026-05-04 19:56 | 39.70093 | 3.33714 | 8936 ft | 261 kts | 269° |
| 2026-05-04 19:57 | 39.70170 | 3.31361 | 8555 ft | 260 kts | 269° |
| 2026-05-04 19:57 | 39.70246 | 3.29017 | 8179 ft | 259 kts | 269° |
| 2026-05-04 19:57 | 39.70319 | 3.26717 | 7812 ft | 257 kts | 270° |
| 2026-05-04 19:57 | 39.70392 | 3.24385 | 7417 ft | 257 kts | 270° |
| 2026-05-04 19:58 | 39.70464 | 3.22080 | 7043 ft | 256 kts | 270° |
| 2026-05-04 19:58 | 39.70533 | 3.19807 | 6672 ft | 255 kts | 270° |
| 2026-05-04 19:58 | 39.70602 | 3.17515 | 6296 ft | 254 kts | 270° |
| 2026-05-04 19:58 | 39.70673 | 3.15253 | 5910 ft | 250 kts | 270° |
| 2026-05-04 19:59 | 39.70742 | 3.13004 | 5343 ft | 250 kts | 270° |
| 2026-05-04 19:59 | 39.70798 | 3.10782 | 4743 ft | 249 kts | 266° |
| 2026-05-04 19:59 | 39.70511 | 3.08581 | 4206 ft | 246 kts | 251° |
| 2026-05-04 19:59 | 39.69831 | 3.06582 | 3976 ft | 238 kts | 242° |
| 2026-05-04 20:00 | 39.69069 | 3.04778 | 3968 ft | 222 kts | 240° |
| 2026-05-04 20:00 | 39.68310 | 3.03093 | 3964 ft | 207 kts | 239° |
| 2026-05-04 20:00 | 39.67576 | 3.01515 | 3971 ft | 206 kts | 239° |
| 2026-05-04 20:00 | 39.66839 | 2.99955 | 3956 ft | 195 kts | 239° |
| 2026-05-04 20:01 | 39.66149 | 2.98505 | 3909 ft | 185 kts | 239° |
| 2026-05-04 20:01 | 39.65485 | 2.97115 | 3687 ft | 178 kts | 239° |
| 2026-05-04 20:01 | 39.64841 | 2.95764 | 3428 ft | 174 kts | 239° |
| 2026-05-04 20:01 | 39.64209 | 2.94443 | 3147 ft | 171 kts | 239° |
| 2026-05-04 20:02 | 39.63591 | 2.93133 | 2869 ft | 168 kts | 239° |
| 2026-05-04 20:02 | 39.62999 | 2.91874 | 2655 ft | 162 kts | 239° |
| 2026-05-04 20:02 | 39.62436 | 2.90688 | 2481 ft | 146 kts | 238° |
| 2026-05-04 20:02 | 39.61921 | 2.89619 | 2232 ft | 138 kts | 238° |
| 2026-05-04 20:03 | 39.61411 | 2.88572 | 2048 ft | 137 kts | 238° |
| 2026-05-04 20:03 | 39.60912 | 2.87522 | 1916 ft | 136 kts | 238° |
| 2026-05-04 20:03 | 39.60420 | 2.86492 | 1761 ft | 135 kts | 238° |
| 2026-05-04 20:03 | 39.59930 | 2.85442 | 1603 ft | 134 kts | 238° |
| 2026-05-04 20:04 | 39.59447 | 2.84409 | 1461 ft | 134 kts | 239° |
| 2026-05-04 20:04 | 39.58968 | 2.83383 | 1280 ft | 134 kts | 238° |
| 2026-05-04 20:04 | 39.58479 | 2.82353 | 1102 ft | 133 kts | 238° |
| 2026-05-04 20:04 | 39.57987 | 2.81336 | 943 ft | 133 kts | 238° |
| 2026-05-04 20:05 | 39.57500 | 2.80337 | 769 ft | 132 kts | 238° |
| 2026-05-04 20:05 | 39.57027 | 2.79311 | 585 ft | 132 kts | 238° |
| 2026-05-04 20:05 | 39.56554 | 2.78300 | 405 ft | 131 kts | 237° |
| 2026-05-04 20:05 | 39.56073 | 2.77293 | 237 ft | 130 kts | 237° |
| 2026-05-04 20:06 | 39.55601 | 2.76299 | 75 ft | 129 kts | 238° |
| 2026-05-04 20:06 | 39.55152 | 2.75349 | 15 ft | 106 kts | 238° |
| 2026-05-04 20:06 | 39.54886 | 2.74780 | 23 ft | 37 kts | 243° |
| 2026-05-04 20:06 | 39.54812 | 2.74526 | 27 ft | 26 kts | 258° |
| 2026-05-04 20:07 | 39.54805 | 2.74338 | 31 ft | 15 kts | 267° |
| 2026-05-04 20:07 | 39.54799 | 2.74214 | 33 ft | 12 kts | 266° |
| 2026-05-04 20:07 | 39.54779 | 2.74111 | 35 ft | 11 kts | 243° |
| 2026-05-04 20:07 | 39.54738 | 2.74019 | 37 ft | 12 kts | 239° |
| 2026-05-04 20:08 | 39.54686 | 2.73909 | 37 ft | 16 kts | 238° |
| 2026-05-04 20:08 | 39.54625 | 2.73781 | 37 ft | 12 kts | 238° |
| 2026-05-04 20:08 | 39.54608 | 2.73746 | 37 ft | 0 kts | 238° |
| 2026-05-04 20:08 | 39.54603 | 2.73735 | 37 ft | 3 kts | 238° |
| 2026-05-04 20:09 | 39.54580 | 2.73674 | 37 ft | 9 kts | 265° |
| 2026-05-04 20:09 | 39.54617 | 2.73600 | 37 ft | 10 kts | 291° |
| 2026-05-04 20:09 | 39.54662 | 2.73524 | 37 ft | 11 kts | 329° |
| 2026-05-04 20:09 | 39.54719 | 2.73472 | 36 ft | 7 kts | 293° |
| 2026-05-04 20:10 | 39.54701 | 2.73415 | 36 ft | 4 kts | 238° |
| 2026-05-04 20:10 | 39.54694 | 2.73401 | 36 ft | 0 kts | 237° |